地図

経路データ

SID SEASON NUMBER BASIN SUBBASIN NAME ISO_TIME NATURE LAT LON WMO_WIND WMO_PRES WMO_AGENCY TRACK_TYPE DIST2LAND LANDFALL IFLAG USA_AGENCY USA_ATCF_ID USA_LAT USA_LON USA_RECORD USA_STATUS USA_WIND USA_PRES USA_SSHS USA_R34_NE USA_R34_SE USA_R34_SW USA_R34_NW USA_R50_NE USA_R50_SE USA_R50_SW USA_R50_NW USA_R64_NE USA_R64_SE USA_R64_SW USA_R64_NW USA_POCI USA_ROCI USA_RMW USA_EYE TOKYO_LAT TOKYO_LON TOKYO_GRADE TOKYO_WIND TOKYO_PRES TOKYO_R50_DIR TOKYO_R50_LONG TOKYO_R50_SHORT TOKYO_R30_DIR TOKYO_R30_LONG TOKYO_R30_SHORT TOKYO_LAND CMA_LAT CMA_LON CMA_CAT CMA_WIND CMA_PRES HKO_LAT HKO_LON HKO_CAT HKO_WIND HKO_PRES NEWDELHI_LAT NEWDELHI_LON NEWDELHI_GRADE NEWDELHI_WIND NEWDELHI_PRES NEWDELHI_CI NEWDELHI_DP NEWDELHI_POCI REUNION_LAT REUNION_LON REUNION_TYPE REUNION_WIND REUNION_PRES REUNION_TNUM REUNION_CI REUNION_RMW REUNION_R34_NE REUNION_R34_SE REUNION_R34_SW REUNION_R34_NW REUNION_R50_NE REUNION_R50_SE REUNION_R50_SW REUNION_R50_NW REUNION_R64_NE REUNION_R64_SE REUNION_R64_SW REUNION_R64_NW BOM_LAT BOM_LON BOM_TYPE BOM_WIND BOM_PRES BOM_TNUM BOM_CI BOM_RMW BOM_R34_NE BOM_R34_SE BOM_R34_SW BOM_R34_NW BOM_R50_NE BOM_R50_SE BOM_R50_SW BOM_R50_NW BOM_R64_NE BOM_R64_SE BOM_R64_SW BOM_R64_NW BOM_ROCI BOM_POCI BOM_EYE BOM_POS_METHOD BOM_PRES_METHOD NADI_LAT NADI_LON NADI_CAT NADI_WIND NADI_PRES WELLINGTON_LAT WELLINGTON_LON WELLINGTON_WIND WELLINGTON_PRES DS824_LAT DS824_LON DS824_STAGE DS824_WIND DS824_PRES TD9636_LAT TD9636_LON TD9636_STAGE TD9636_WIND TD9636_PRES TD9635_LAT TD9635_LON TD9635_WIND TD9635_PRES TD9635_ROCI NEUMANN_LAT NEUMANN_LON NEUMANN_CLASS NEUMANN_WIND NEUMANN_PRES MLC_LAT MLC_LON MLC_CLASS MLC_WIND MLC_PRES USA_GUST BOM_GUST BOM_GUST_PER REUNION_GUST REUNION_GUST_PER USA_SEAHGT USA_SEARAD_NE USA_SEARAD_SE USA_SEARAD_SW USA_SEARAD_NW STORM_SPEED STORM_DIR
1998249N16256 1998 58 EP MM JAVIER 1998-09-05 18:00:00 NR 16.2000 -103.700 main 228 221 O_____________ jtwc_ep EP111998 16.2000 -103.700 25 -1 13 292
1998249N16256 1998 58 EP MM JAVIER 1998-09-05 21:00:00 NR 16.4477 -104.342 main 228 222 P_____________ EP111998 16.4528 -104.345 25 -1 13 292
1998249N16256 1998 58 EP MM JAVIER 1998-09-06 00:00:00 NR 16.7000 -105.000 main 239 239 O_____________ jtwc_ep EP111998 16.7000 -105.000 25 -1 14 292
1998249N16256 1998 58 EP MM JAVIER 1998-09-06 03:00:00 NR 16.9576 -105.660 main 263 262 P_____________ EP111998 16.9426 -105.653 25 -1 13 294
1998249N16256 1998 58 EP MM JAVIER 1998-09-06 06:00:00 NR 17.2000 -106.200 main 268 262 O_____________ jtwc_ep EP111998 17.2000 -106.200 25 -1 9 299
1998249N16256 1998 58 EP MM JAVIER 1998-09-06 09:00:00 NR 17.4071 -106.495 main 269 260 P_____________ EP111998 17.4996 -106.538 25 -1 7 313
1998249N16256 1998 58 EP MM JAVIER 1998-09-06 12:00:00 TS 17.6667 -106.733 25 1001 hurdat_epa main 260 260 O_____________ hurdat_epa EP111998 17.8000 -106.800 TD 25 1001 -1 7 314
1998249N16256 1998 58 EP MM JAVIER 1998-09-06 15:00:00 TS 17.9200 -107.055 main 276 268 P_____________ EP111998 18.0574 -107.135 TD 25 1001 -1 8 308
1998249N16256 1998 58 EP MM JAVIER 1998-09-06 18:00:00 TS 18.1800 -107.420 25 1001 hurdat_epa main 277 277 O_____________ hurdat_epa EP111998 18.3000 -107.500 TD 25 1001 -1 9 306
1998249N16256 1998 58 EP MM JAVIER 1998-09-06 21:00:00 TS 18.4500 -107.838 main 300 300 P_____________ EP111998 18.5575 -107.893 TD 25 1001 -1 10 303
1998249N16256 1998 58 EP MM JAVIER 1998-09-07 00:00:00 TS 18.7000 -108.267 25 1001 hurdat_epa main 327 327 O_____________ hurdat_epa EP111998 18.8000 -108.300 TD 25 1001 -1 10 301
1998249N16256 1998 58 EP MM JAVIER 1998-09-07 03:00:00 TS 18.9408 -108.698 main 356 350 P_____________ EP111998 19.0075 -108.715 TD 27 1000 -1 9 301
1998249N16256 1998 58 EP MM JAVIER 1998-09-07 06:00:00 TS 19.1667 -109.100 30 1000 hurdat_epa main 380 380 O_____________ hurdat_epa EP111998 19.2000 -109.100 TD 30 1000 -1 8 301
1998249N16256 1998 58 EP MM JAVIER 1998-09-07 09:00:00 TS 19.3590 -109.424 main 393 369 P_____________ EP111998 19.3848 -109.400 TD 30 999 -1 7 304
1998249N16256 1998 58 EP MM JAVIER 1998-09-07 12:00:00 TS 19.5667 -109.733 30 999 hurdat_epa main 369 346 O_____________ hurdat_epa EP111998 19.6000 -109.700 TD 30 999 -1 8 309
1998249N16256 1998 58 EP MM JAVIER 1998-09-07 15:00:00 TS 19.8549 -110.077 main 335 314 P_____________ EP111998 19.9073 -110.062 TD 32 998 -1 9 309
1998249N16256 1998 58 EP MM JAVIER 1998-09-07 18:00:00 TS 20.1333 -110.467 35 998 hurdat_epa main 317 299 O_____________ hurdat_epa EP111998 20.2000 -110.500 TS 35 998 0 10 300
1998249N16256 1998 58 EP MM JAVIER 1998-09-07 21:00:00 TS 20.3303 -110.958 main 308 298 P_____________ EP111998 20.3879 -111.087 TS 35 998 0 9 291
1998249N16256 1998 58 EP MM JAVIER 1998-09-08 00:00:00 TS 20.4667 -111.400 35 998 hurdat_epa main 304 304 O_____________ hurdat_epa EP111998 20.5000 -111.600 TS 35 998 0 7 290
1998249N16256 1998 58 EP MM JAVIER 1998-09-08 03:00:00 TS 20.5673 -111.653 main 311 311 P_____________ EP111998 20.5572 -111.810 TS 37 997 0 4 294
1998249N16256 1998 58 EP MM JAVIER 1998-09-08 06:00:00 TS 20.6333 -111.800 40 997 hurdat_epa main 317 308 O_____________ hurdat_epa EP111998 20.6000 -111.900 TS 40 997 0 3 294
1998249N16256 1998 58 EP MM JAVIER 1998-09-08 09:00:00 TS 20.6958 -111.959 main 321 321 P_____________ EP111998 20.7075 -112.095 TS 45 996 0 2 295
1998249N16256 1998 58 EP MM JAVIER 1998-09-08 12:00:00 TS 20.7333 -112.033 50 995 hurdat_epa main 321 321 O_____________ hurdat_epa EP111998 20.8000 -112.200 TS 50 995 0 1 319
1998249N16256 1998 58 EP MM JAVIER 1998-09-08 15:00:00 TS 20.7383 -111.990 main 321 314 P_____________ EP111998 20.8150 -112.103 TS 45 996 0 2 90
1998249N16256 1998 58 EP MM JAVIER 1998-09-08 18:00:00 TS 20.7333 -111.867 40 997 hurdat_epa main 314 293 O_____________ hurdat_epa EP111998 20.8000 -111.900 TS 40 997 0 3 85
1998249N16256 1998 58 EP MM JAVIER 1998-09-08 21:00:00 TS 20.7625 -111.707 main 293 287 P_____________ EP111998 20.8226 -111.678 TS 37 997 0 3 83
1998249N16256 1998 58 EP MM JAVIER 1998-09-09 00:00:00 TS 20.7667 -111.567 35 998 hurdat_epa main 287 287 O_____________ hurdat_epa EP111998 20.8000 -111.500 TS 35 998 0 2 121
1998249N16256 1998 58 EP MM JAVIER 1998-09-09 03:00:00 TS 20.6683 -111.535 main 290 290 P_____________ EP111998 20.6275 -111.470 TS 35 998 0 2 165
1998249N16256 1998 58 EP MM JAVIER 1998-09-09 06:00:00 TS 20.6000 -111.533 35 998 hurdat_epa main 300 290 O_____________ hurdat_epa EP111998 20.5000 -111.500 TS 35 998 0 1 66
1998249N16256 1998 58 EP MM JAVIER 1998-09-09 09:00:00 TS 20.6967 -111.473 main 290 275 P_____________ EP111998 20.6200 -111.485 TS 35 998 0 3 23
1998249N16256 1998 58 EP MM JAVIER 1998-09-09 12:00:00 TS 20.8333 -111.433 35 999 hurdat_epa main 275 266 O_____________ hurdat_epa EP111998 20.8000 -111.500 TS 35 999 0 2 347
1998249N16256 1998 58 EP MM JAVIER 1998-09-09 15:00:00 TS 20.8933 -111.516 main 271 271 P_____________ EP111998 20.8574 -111.652 TS 32 999 -1 1 317
1998249N16256 1998 58 EP MM JAVIER 1998-09-09 18:00:00 TS 20.9333 -111.533 30 999 hurdat_epa main 271 251 O_____________ hurdat_epa EP111998 20.9000 -111.700 TD 30 999 -1 2 64
1998249N16256 1998 58 EP MM JAVIER 1998-09-09 21:00:00 TS 20.9961 -111.289 main 251 236 P_____________ EP111998 21.0153 -111.380 TD 30 999 -1 5 79
1998249N16256 1998 58 EP MM JAVIER 1998-09-10 00:00:00 TS 21.0333 -111.000 30 1000 hurdat_epa main 236 231 O_____________ hurdat_epa EP111998 21.1000 -111.000 TD 30 1000 -1 4 86
1998249N16256 1998 58 EP MM JAVIER 1998-09-10 03:00:00 TS 21.0199 -110.877 main 231 227 P_____________ EP111998 21.0799 -110.862 TD 27 1000 -1 2 110
1998249N16256 1998 58 EP MM JAVIER 1998-09-10 06:00:00 TS 20.9667 -110.800 25 1000 hurdat_epa main 227 227 O_____________ hurdat_epa EP111998 21.0000 -110.800 TD 25 1000 -1 2 128
1998249N16256 1998 58 EP MM JAVIER 1998-09-10 09:00:00 TS 20.8858 -110.691 main 234 232 P_____________ EP111998 20.9075 -110.708 TD 25 1000 -1 3 127
1998249N16256 1998 58 EP MM JAVIER 1998-09-10 12:00:00 TS 20.8000 -110.567 25 1000 hurdat_epa main 242 238 O_____________ hurdat_epa EP111998 20.8000 -110.600 TD 25 1000 -1 3 119
1998249N16256 1998 58 EP MM JAVIER 1998-09-10 15:00:00 TS 20.7450 -110.417 main 249 247 P_____________ EP111998 20.7075 -110.450 TD 25 1000 -1 3 110
1998249N16256 1998 58 EP MM JAVIER 1998-09-10 18:00:00 TS 20.7000 -110.267 25 1000 hurdat_epa main 247 246 O_____________ hurdat_epa EP111998 20.6000 -110.300 TD 25 1000 -1 3 110
1998249N16256 1998 58 EP MM JAVIER 1998-09-10 21:00:00 TS 20.6525 -110.150 main 246 246 P_____________ EP111998 20.4500 -110.200 TD 25 1000 -1 2 115
1998249N16256 1998 58 EP MM JAVIER 1998-09-11 00:00:00 TS 20.6000 -110.033 25 1000 hurdat_epa main 257 257 O_____________ hurdat_epa EP111998 20.3000 -110.100 TD 25 1000 -1 3 110
1998249N16256 1998 58 EP MM JAVIER 1998-09-11 03:00:00 TS 20.5608 -109.881 main 257 257 P_____________ EP111998 20.2000 -109.950 TD 25 1000 -1 3 116
1998249N16256 1998 58 EP MM JAVIER 1998-09-11 06:00:00 TS 20.4667 -109.733 25 1000 hurdat_epa main 268 268 O_____________ hurdat_epa EP111998 20.1000 -109.800 TD 25 1000 -1 4 141
1998249N16256 1998 58 EP MM JAVIER 1998-09-11 09:00:00 TS 20.2883 -109.641 main 291 291 P_____________ EP111998 19.9799 -109.708 TD 25 1000 -1 5 160
1998249N16256 1998 58 EP MM JAVIER 1998-09-11 12:00:00 TS 19.9636 -109.545 25 1000 hurdat_epa main 325 325 O_____________ hurdat_epa EP111998 19.8000 -109.600 TD 25 1000 -1 8 161
1998249N16256 1998 58 EP MM JAVIER 1998-09-11 15:00:00 TS 19.5660 -109.382 main 371 371 P_____________ EP111998 19.5225 -109.422 TD 25 1000 -1 9 156
1998249N16256 1998 58 EP MM JAVIER 1998-09-11 18:00:00 TS 19.1778 -109.178 25 1001 hurdat_epa main 389 379 O_____________ hurdat_epa EP111998 19.2000 -109.200 TD 25 1001 -1 8 150
1998249N16256 1998 58 EP MM JAVIER 1998-09-11 21:00:00 TS 18.8850 -108.957 main 384 370 P_____________ EP111998 18.8850 -108.957 TD 25 1001 -1 7 142
1998249N16256 1998 58 EP MM JAVIER 1998-09-12 00:00:00 TS 18.6000 -108.700 25 1001 hurdat_epa main 370 362 O_____________ hurdat_epa EP111998 18.6000 -108.700 TD 25 1001 -1 7 137
1998249N16256 1998 58 EP MM JAVIER 1998-09-12 03:00:00 TS 18.3774 -108.458 main 362 347 P_____________ EP111998 18.3774 -108.458 TD 27 1000 -1 6 130
1998249N16256 1998 58 EP MM JAVIER 1998-09-12 06:00:00 TS 18.2000 -108.200 30 1000 hurdat_epa main 347 333 O_____________ hurdat_epa EP111998 18.2000 -108.200 TD 30 1000 -1 6 125
1998249N16256 1998 58 EP MM JAVIER 1998-09-12 09:00:00 TS 18.0125 -107.915 main 333 314 P_____________ EP111998 18.0125 -107.915 TD 32 999 -1 6 118
1998249N16256 1998 58 EP MM JAVIER 1998-09-12 12:00:00 TS 17.9000 -107.600 35 999 hurdat_epa main 314 291 O_____________ hurdat_epa EP111998 17.9000 -107.600 TS 35 999 0 7 100
1998249N16256 1998 58 EP MM JAVIER 1998-09-12 15:00:00 TS 17.8975 -107.243 main 283 254 P_____________ EP111998 17.8975 -107.243 TS 40 998 0 7 81
1998249N16256 1998 58 EP MM JAVIER 1998-09-12 18:00:00 TS 18.0000 -106.900 45 997 hurdat_epa main 254 215 O_____________ hurdat_epa EP111998 18.0000 -106.900 TS 45 997 0 7 65
1998249N16256 1998 58 EP MM JAVIER 1998-09-12 21:00:00 TS 18.1775 -106.620 main 215 184 P_____________ EP111998 18.1775 -106.620 TS 42 998 0 6 50
1998249N16256 1998 58 EP MM JAVIER 1998-09-13 00:00:00 TS 18.4000 -106.400 40 999 hurdat_epa main 184 154 O_____________ hurdat_epa EP111998 18.4000 -106.400 TS 40 999 0 6 41
1998249N16256 1998 58 EP MM JAVIER 1998-09-13 03:00:00 TS 18.5924 -106.235 main 154 131 P_____________ EP111998 18.5924 -106.235 TS 37 999 0 5 35
1998249N16256 1998 58 EP MM JAVIER 1998-09-13 06:00:00 TS 18.8000 -106.100 35 1000 hurdat_epa main 131 107 O_____________ hurdat_epa EP111998 18.8000 -106.100 TS 35 1000 0 5 32
1998249N16256 1998 58 EP MM JAVIER 1998-09-13 09:00:00 TS 19.0425 -105.943 main 100 68 P_____________ EP111998 19.0425 -105.943 TS 35 1000 0 6 30
1998249N16256 1998 58 EP MM JAVIER 1998-09-13 12:00:00 TS 19.3000 -105.800 35 1000 hurdat_epa main 68 43 O_____________ hurdat_epa EP111998 19.3000 -105.800 TS 35 1000 0 6 25
1998249N16256 1998 58 EP MM JAVIER 1998-09-13 15:00:00 TS 19.5725 -105.685 main 43 23 P_____________ EP111998 19.5725 -105.685 TS 32 1000 -1 5 21
1998249N16256 1998 58 EP MM JAVIER 1998-09-13 18:00:00 TS 19.8000 -105.600 30 1001 hurdat_epa main 23 15 O_____________ hurdat_epa EP111998 19.8000 -105.600 TD 30 1001 -1 4 19
1998249N16256 1998 58 EP MM JAVIER 1998-09-13 21:00:00 TS 19.9225 -105.550 main 10 0 P_____________ EP111998 19.9225 -105.550 TD 30 1001 -1 2 27
1998249N16256 1998 58 EP MM JAVIER 1998-09-14 00:00:00 TS 20.0000 -105.500 30 1001 hurdat_epa main 0 0 O_____________ hurdat_epa EP111998 20.0000 -105.500 TD 30 1001 -1 2 39
1998249N16256 1998 58 EP MM JAVIER 1998-09-14 03:00:00 TS 20.0925 -105.400 main 0 0 P_____________ EP111998 20.0925 -105.400 TD 30 1001 -1 3 44
1998249N16256 1998 58 EP MM JAVIER 1998-09-14 06:00:00 TS 20.2000 -105.300 30 1002 hurdat_epa main 0 0 O_____________ hurdat_epa EP111998 20.2000 -105.300 TD 30 1002 -1 3 32
1998249N16256 1998 58 EP MM JAVIER 1998-09-14 09:00:00 TS 20.3400 -105.238 main 0 0 P_____________ EP111998 20.3400 -105.238 TD 30 1002 -1 3 17
1998249N16256 1998 58 EP MM JAVIER 1998-09-14 12:00:00 TS 20.5000 -105.200 30 1002 hurdat_epa main 0 O_____________ hurdat_epa EP111998 20.5000 -105.200 TD 30 1002 -1 3 11

IBTrACS Databaseについて

本データベースは、米国NOAAが公開する1842年以降の世界の熱帯低気圧のベストトラックデータアーカイブInternational Best Track Archive for Climate Stewardship (IBTrACS)を、ウェブで閲覧しやすい形式に変換したものです。

最終更新日:2021-11-26